Tarvin, United Kingdom
Current Conditions -  °F | °C
As of 8:50 PM on Wednesday 28 Jan 2015 (Local Time) from EGNR Reporting Station
Scattered Clouds Scattered Clouds  
Wind Chill: 29°   Ceiling: Unl
Heat Index: 37°   Visibility: 6mi
Dew Point: 32°   Wind: 15mph
Humidity: 81%   Direction: 250°WSW
Pressure: 29.41"   Gusts: NA
Location:  53.2°N, 2.77°W
Report Text: EGNR 282050Z 25013KT 9999 FEW010 SCT023 03/M00 Q0996
Loading
Personal Weather Stations






























Interactive Weather Map New forecast layout! Learn more

10-Day Weather Forecast

Advertisements
Track Severe Weather on mobile